createdAt,value
2023-05-19T00:00:38.394Z,8.85
2023-05-19T00:04:55.158Z,11.65
2023-05-19T00:09:13.394Z,10.63
2023-05-19T00:13:29.776Z,10.25
2023-05-19T00:17:46.066Z,10.57
2023-05-19T00:22:02.205Z,7.50
2023-05-19T00:26:18.477Z,8.07
2023-05-19T00:30:34.710Z,9.27
2023-05-19T00:34:50.891Z,8.20
2023-05-19T00:39:07.516Z,8.55
2023-05-19T00:43:23.763Z,8.52
2023-05-19T00:47:40.487Z,9.32
2023-05-19T00:51:57.205Z,12.27
2023-05-19T00:56:13.493Z,10.77
2023-05-19T01:00:30.911Z,7.62
2023-05-19T01:04:47.873Z,10.77
2023-05-19T01:09:04.618Z,10.00
2023-05-19T01:13:21.000Z,9.23
2023-05-19T01:17:49.648Z,9.02
2023-05-19T01:22:45.141Z,11.88
2023-05-19T01:27:38.533Z,10.20
2023-05-19T01:31:56.873Z,11.10
2023-05-19T01:36:14.674Z,9.57
2023-05-19T01:40:31.401Z,10.50
2023-05-19T01:44:48.164Z,8.48
2023-05-19T01:49:04.833Z,10.25
2023-05-19T01:53:21.169Z,12.13
2023-05-19T01:57:43.062Z,8.10
2023-05-19T02:02:01.437Z,9.50
2023-05-19T02:06:20.669Z,7.62
2023-05-19T02:10:37.912Z,11.88
2023-05-19T02:15:19.173Z,7.50
2023-05-19T02:19:42.423Z,9.27
2023-05-19T02:23:58.704Z,8.27
2023-05-19T02:28:14.918Z,12.52
2023-05-19T02:32:31.758Z,10.68
2023-05-19T02:36:50.926Z,10.07
2023-05-19T02:41:07.115Z,10.00
2023-05-19T02:45:23.403Z,10.15
2023-05-19T02:49:40.246Z,9.60
2023-05-19T02:53:56.382Z,11.20
2023-05-19T02:58:13.051Z,12.05
2023-05-19T03:02:29.757Z,9.75
2023-05-19T03:06:46.891Z,10.00
2023-05-19T03:11:03.984Z,10.98
2023-05-19T03:15:23.023Z,9.35
2023-05-19T03:19:39.319Z,13.68
2023-05-19T03:23:55.598Z,10.85
2023-05-19T03:28:11.811Z,13.30
2023-05-19T03:32:28.136Z,9.75
2023-05-19T03:36:45.286Z,8.50
2023-05-19T03:41:01.473Z,9.95
2023-05-19T03:45:17.659Z,9.70
2023-05-19T03:49:33.866Z,8.07
2023-05-19T03:53:50.281Z,8.57
2023-05-19T03:58:06.548Z,8.85
2023-05-19T04:02:22.818Z,12.20
2023-05-19T04:06:39.183Z,9.48
2023-05-19T04:10:55.367Z,9.70
2023-05-19T04:15:12.248Z,8.45
2023-05-19T04:19:28.623Z,20.10
2023-05-19T04:23:44.977Z,7.95
2023-05-19T04:28:01.208Z,6.78
2023-05-19T04:32:20.140Z,6.87
2023-05-19T04:36:36.866Z,9.88
2023-05-19T04:40:53.095Z,9.32
2023-05-19T04:45:14.331Z,7.22
2023-05-19T04:49:30.546Z,8.18
2023-05-19T04:53:46.751Z,9.77
2023-05-19T04:58:03.036Z,10.48
2023-05-19T05:02:19.267Z,11.20
2023-05-19T05:06:38.608Z,7.72
2023-05-19T05:10:55.176Z,9.48
2023-05-19T05:15:12.274Z,10.57
2023-05-19T05:19:29.208Z,12.45
2023-05-19T05:23:45.816Z,8.20
2023-05-19T05:28:05.447Z,8.30
2023-05-19T05:32:21.909Z,8.45
2023-05-19T05:36:38.119Z,9.10
2023-05-19T05:40:54.362Z,8.07
2023-05-19T05:45:10.839Z,7.95
2023-05-19T05:49:27.324Z,9.77
2023-05-19T05:53:45.170Z,10.13
2023-05-19T05:58:02.577Z,11.15
2023-05-19T06:02:19.383Z,9.07
2023-05-19T06:06:36.471Z,9.10
2023-05-19T06:10:52.727Z,8.27
2023-05-19T06:15:09.207Z,11.25
2023-05-19T06:19:25.707Z,12.10
2023-05-19T06:23:42.487Z,11.80
2023-05-19T06:27:58.715Z,12.68
2023-05-19T06:32:15.347Z,12.37
2023-05-19T06:36:31.651Z,12.37
2023-05-19T06:40:48.182Z,11.55
2023-05-19T06:45:04.585Z,10.50
2023-05-19T06:49:20.981Z,11.93
2023-05-19T06:53:37.130Z,10.05
2023-05-19T06:57:53.333Z,12.55
2023-05-19T07:02:09.934Z,9.90
2023-05-19T07:06:26.325Z,11.35
2023-05-19T07:10:42.502Z,12.10
2023-05-19T07:14:58.671Z,12.48
2023-05-19T07:19:15.207Z,15.88
2023-05-19T07:23:31.440Z,12.75
2023-05-19T07:27:47.932Z,15.80
2023-05-19T07:32:04.394Z,12.68
2023-05-19T07:36:21.163Z,14.65
2023-05-19T07:40:37.341Z,13.70
2023-05-19T07:44:53.679Z,12.52
2023-05-19T07:49:10.670Z,14.05
2023-05-19T07:53:28.275Z,11.57
2023-05-19T07:57:44.922Z,17.60
2023-05-19T08:02:01.463Z,10.93
2023-05-19T08:06:17.835Z,14.93
2023-05-19T08:10:34.672Z,15.30
2023-05-19T08:14:51.551Z,10.32
2023-05-19T08:19:08.055Z,13.27
2023-05-19T08:23:24.435Z,11.27
2023-05-19T08:27:40.765Z,10.23
2023-05-19T08:31:58.660Z,11.38
2023-05-19T08:36:15.077Z,9.98
2023-05-19T08:40:32.161Z,12.55
2023-05-19T08:44:48.618Z,11.60
2023-05-19T08:49:12.413Z,12.55
2023-05-19T08:53:34.854Z,10.88
2023-05-19T08:57:51.482Z,11.57
2023-05-19T09:02:08.446Z,10.15
2023-05-19T09:06:25.764Z,10.93
2023-05-19T09:10:42.028Z,9.95
2023-05-19T09:14:59.469Z,6.53
2023-05-19T09:19:16.287Z,8.13
2023-05-19T09:23:36.392Z,5.57
2023-05-19T09:27:54.746Z,8.95
2023-05-19T09:32:11.257Z,10.00
2023-05-19T09:36:29.127Z,11.82
2023-05-19T09:40:45.504Z,6.78
2023-05-19T09:45:03.551Z,7.65
2023-05-19T09:49:24.113Z,5.62
2023-05-19T09:53:40.424Z,9.05
2023-05-19T09:57:56.893Z,5.40
2023-05-19T10:02:16.921Z,5.18
2023-05-19T10:06:33.201Z,5.70
2023-05-19T10:10:49.681Z,6.37
2023-05-19T10:15:10.847Z,6.85
2023-05-19T10:19:30.420Z,6.55
2023-05-19T10:23:46.612Z,5.95
2023-05-19T10:28:14.112Z,5.78
2023-05-19T10:32:32.932Z,5.62
2023-05-19T10:36:50.810Z,7.00
2023-05-19T10:41:39.949Z,4.82
2023-05-19T10:45:57.456Z,5.40
2023-05-19T10:50:13.849Z,7.00
2023-05-19T10:54:48.054Z,3.97
2023-05-19T10:59:04.695Z,2.95
2023-05-19T11:03:24.473Z,3.78
2023-05-19T11:07:44.417Z,4.85
2023-05-19T11:12:04.047Z,5.55
2023-05-19T11:16:27.214Z,9.80
2023-05-19T11:25:00.986Z,4.78
2023-05-19T11:29:17.159Z,6.12
2023-05-19T11:33:33.963Z,4.60
2023-05-19T11:37:52.567Z,8.60
2023-05-19T11:42:11.918Z,4.18
2023-05-19T11:46:28.382Z,4.43
2023-05-19T11:50:44.847Z,9.40
2023-05-19T11:55:01.733Z,3.40
2023-05-19T11:59:17.994Z,5.32
2023-05-19T12:03:34.436Z,5.22
2023-05-19T12:07:52.462Z,5.80
2023-05-19T12:12:08.910Z,4.32
2023-05-19T12:16:33.482Z,4.97
2023-05-19T12:20:50.056Z,5.35
2023-05-19T12:25:06.568Z,4.32
2023-05-19T12:29:23.354Z,4.18
2023-05-19T12:33:39.826Z,3.00
2023-05-19T12:37:57.083Z,5.25
2023-05-19T12:42:13.848Z,2.87
2023-05-19T12:46:33.247Z,3.83
2023-05-19T12:50:51.747Z,4.30
2023-05-19T12:55:09.491Z,3.83
2023-05-19T12:59:37.319Z,2.92
2023-05-19T13:03:54.994Z,5.68
2023-05-19T13:08:30.180Z,4.00
2023-05-19T13:12:46.505Z,3.30
2023-05-19T13:17:03.514Z,4.68
2023-05-19T13:21:19.792Z,3.05
2023-05-19T13:25:36.430Z,3.37
2023-05-19T13:29:52.772Z,3.70
2023-05-19T13:34:09.188Z,3.90
2023-05-19T13:38:25.470Z,2.15
2023-05-19T13:42:41.881Z,5.50
2023-05-19T13:46:58.135Z,3.50
2023-05-19T13:51:14.505Z,2.80
2023-05-19T13:55:30.904Z,6.70
2023-05-19T14:00:01.032Z,2.22
2023-05-19T14:04:19.694Z,5.15
2023-05-19T14:08:36.552Z,3.78
2023-05-19T14:13:25.359Z,6.03
2023-05-19T14:17:30.336Z,3.45
2023-05-19T14:21:46.601Z,2.90
2023-05-19T14:26:02.826Z,2.97
2023-05-19T14:30:18.976Z,2.70
2023-05-19T14:34:35.584Z,2.97
2023-05-19T14:38:51.786Z,5.97
2023-05-19T14:43:08.520Z,5.55
2023-05-19T14:47:26.396Z,6.82
2023-05-19T14:51:43.467Z,4.12
2023-05-19T14:55:59.660Z,2.92
2023-05-19T15:00:17.006Z,3.40
2023-05-19T15:04:33.300Z,2.05
2023-05-19T15:08:49.443Z,4.57
2023-05-19T15:13:05.686Z,5.55
2023-05-19T15:17:22.079Z,3.83
2023-05-19T15:21:38.359Z,6.03
2023-05-19T15:25:54.592Z,2.92
2023-05-19T15:30:11.050Z,3.17
2023-05-19T15:34:27.866Z,4.87
2023-05-19T15:38:44.000Z,2.67
2023-05-19T15:43:00.267Z,4.45
2023-05-19T15:47:16.460Z,3.22
2023-05-19T15:51:32.780Z,4.62
2023-05-19T15:55:49.066Z,5.07
2023-05-19T16:00:05.746Z,6.03
2023-05-19T16:04:22.300Z,6.15
2023-05-19T16:08:38.818Z,4.35
2023-05-19T16:12:55.718Z,5.65
2023-05-19T16:17:14.452Z,4.82
2023-05-19T16:21:32.399Z,6.37
2023-05-19T16:25:48.946Z,4.30
2023-05-19T16:30:06.094Z,5.35
2023-05-19T16:34:22.577Z,4.32
2023-05-19T16:38:38.858Z,6.93
2023-05-19T16:42:55.256Z,11.63
2023-05-19T16:47:11.700Z,4.05
2023-05-19T16:51:28.139Z,6.62
2023-05-19T16:55:44.782Z,8.13
2023-05-19T17:00:01.140Z,7.85
2023-05-19T17:04:17.629Z,6.12
2023-05-19T17:08:34.363Z,6.12
2023-05-19T17:12:50.974Z,5.93
2023-05-19T17:17:08.129Z,7.87
2023-05-19T17:21:24.497Z,3.92
2023-05-19T17:25:41.424Z,3.15
2023-05-19T17:29:57.942Z,7.37
2023-05-19T17:34:16.039Z,4.03
2023-05-19T17:38:32.656Z,7.62
2023-05-19T17:42:48.897Z,6.57
2023-05-19T17:47:07.417Z,4.87
2023-05-19T17:51:24.037Z,5.25
2023-05-19T17:55:41.131Z,7.80
2023-05-19T17:59:57.609Z,14.75
2023-05-19T18:04:16.036Z,7.57
2023-05-19T18:08:36.072Z,6.40
2023-05-19T18:12:52.421Z,13.35
2023-05-19T18:17:08.705Z,6.62
2023-05-19T18:21:25.526Z,5.32
2023-05-19T18:25:41.952Z,14.98
2023-05-19T18:29:58.267Z,8.65
2023-05-19T18:34:14.609Z,5.53
2023-05-19T18:38:30.992Z,6.65
2023-05-19T18:42:48.037Z,7.05
2023-05-19T18:47:04.379Z,6.53
2023-05-19T18:51:21.685Z,6.75
2023-05-19T18:55:38.654Z,7.65
2023-05-19T18:59:54.888Z,7.37
2023-05-19T19:04:11.432Z,8.35
2023-05-19T19:08:27.697Z,8.07
2023-05-19T19:12:43.872Z,11.98
2023-05-19T19:17:00.098Z,7.53
2023-05-19T19:21:16.387Z,14.18
2023-05-19T19:25:33.123Z,8.82
2023-05-19T19:29:49.456Z,8.23
2023-05-19T19:34:09.313Z,10.55
2023-05-19T19:38:25.808Z,9.35
2023-05-19T19:42:42.098Z,10.70
2023-05-19T19:46:58.505Z,10.48
2023-05-19T19:51:14.700Z,10.48
2023-05-19T19:55:31.120Z,8.77
2023-05-19T19:59:47.389Z,10.35
2023-05-19T20:04:04.296Z,6.78
2023-05-19T20:08:20.797Z,5.65
2023-05-19T20:12:37.370Z,11.27
2023-05-19T20:16:53.604Z,7.70
2023-05-19T20:21:09.826Z,9.13
2023-05-19T20:25:26.358Z,6.40
2023-05-19T20:29:42.662Z,6.93
2023-05-19T20:33:59.498Z,7.12
2023-05-19T20:38:17.656Z,7.10
2023-05-19T20:42:34.274Z,6.00
2023-05-19T20:46:56.158Z,8.40
2023-05-19T20:51:14.936Z,7.10
2023-05-19T20:55:31.583Z,9.23
2023-05-19T20:59:55.130Z,6.37
2023-05-19T21:04:11.845Z,7.25
2023-05-19T21:08:28.342Z,7.93
2023-05-19T21:12:44.772Z,12.43
2023-05-19T21:17:06.155Z,8.00
2023-05-19T21:21:22.530Z,11.73
2023-05-19T21:25:39.590Z,5.62
2023-05-19T21:29:56.691Z,9.45
2023-05-19T21:34:13.020Z,5.60
2023-05-19T21:38:29.339Z,9.90
2023-05-19T21:42:46.218Z,7.70
2023-05-19T21:47:02.517Z,12.00
2023-05-19T21:51:18.670Z,10.43
2023-05-19T21:55:35.149Z,11.52
2023-05-19T21:59:51.385Z,7.72
2023-05-19T22:04:07.856Z,6.85
2023-05-19T22:08:24.763Z,10.95
2023-05-19T22:12:41.015Z,13.38
2023-05-19T22:16:57.312Z,6.68
2023-05-19T22:21:13.486Z,11.12
2023-05-19T22:25:29.780Z,7.68
2023-05-19T22:29:46.006Z,7.30
2023-05-19T22:34:02.225Z,8.18
2023-05-19T22:38:18.492Z,6.32
2023-05-19T22:42:34.706Z,12.37
2023-05-19T22:46:50.916Z,6.18
2023-05-19T22:51:07.112Z,6.22
2023-05-19T22:55:23.361Z,8.63
2023-05-19T22:59:40.248Z,6.85
2023-05-19T23:03:56.388Z,13.07
2023-05-19T23:08:12.938Z,8.43
2023-05-19T23:12:29.145Z,6.53
2023-05-19T23:16:45.490Z,9.05
2023-05-19T23:21:01.766Z,9.32
2023-05-19T23:25:18.052Z,7.00
2023-05-19T23:29:34.300Z,6.72
2023-05-19T23:33:50.627Z,8.15
2023-05-19T23:38:06.815Z,8.07
2023-05-19T23:42:23.020Z,5.55
2023-05-19T23:46:39.267Z,13.20
2023-05-19T23:50:55.616Z,11.50
2023-05-19T23:55:13.745Z,6.37
2023-05-19T23:59:29.977Z,8.45
